メインページ
METAR-TAF:

METAR-TAF

空港 :

Pellston Regional Airport of Emmet County

Pellston, ミシガン州, アメリカ合衆国

緯度: 45-34-15N, 経度: 084-47-48W, 海抜: 220m

現時点の気象観測

当レポートは44分前の02:05(UTC)に作成
北西の風 7kt
気温 -5°C
湿度 68%
気圧 1026 hPa
視程: 16.1km
高度3000ftの曇り

METAR: KPLN 070205Z AUTO 31007KT 10SM OVC030 M05/M10 A3031 RMK AO2 T10501100

時間: 21:49 (02:49 UTC)

予報

当レポートは3時間25分前の23:24(UTC)に作成
予報は07日の 00時(UTC)から 07日の 24時(UTC)まで有効
西/北西の風 9kt
視程: 10km
高度3500ftの千切れ雲あり
07日の 0600時(UTC)から
西の風 5kt
視程: 10km
高度5000ftの千切れ雲あり
07日の 0900時(UTC)から
変向風 4kt
視程: 10km
高度3500ftの曇り
近辺でにわか雨
07日の 1700時(UTC)から
南西の風 10kt
視程: 10km
高度4500ftの曇り
近辺でにわか雨
07日の 2100時(UTC)から
南/南西の風 9kt
視程: 10km
高度3000ftの曇り

TAF: KPLN 062324Z 0700/0724 30009KT P6SM BKN035 FM070600 27005KT P6SM BKN050 FM070900 VRB04KT P6SM VCSH OVC035 FM071700 22010KT P6SM VCSH OVC045 FM072100 20009KT P6SM OVC030

4,000以上の空港の気象観測と天気予報(METAR報とTAF報)

利用可能な観測所は地図上に黄色い丸と赤い丸で示す。

丸の上にカーソルを重ねると観測所名を参照できる。

次にクリックすると気象観測と天気予報を参照できる。

マップの切り替え:黒色「×」印の緑ボタンをクリックして拡大、「-」印の緑ボタンをクリックして縮小、緑色の三角印をクリックして隣りの地図に切り替え


METAR-TAF: